Gerd Maersk — OYGM2 — position and weather

sailwx.info

Track history (hours):
 
Tides and Currents Weather Stations Pressure Air Temp Water Temp Dewpoint Dewpoint Depression Visibility Wind Speed Wind Dir Waves Ship Positions

Gerd Maersk

Last reported at 2015-Jun-29 08:33 UTC. Time now 2015-Jul-03 12:26 UTC.
Position N 36°05' E 015°34'.

Length 367 m; draft 13.6 m.

Type: Ship (hazmat cat A). MMSI: 220415000.

Date/timePositionNaut miles runAvg speedWind from/ knotsBaromVisibWave heightAir tempDewpointWater temp
2015-Jun-29 08:33N 36°05' E 015°34'3715.6
2015-Jun-29 06:10N 36°17' E 014°50'1016.5
2015-Jun-29 05:33N 36°20' E 014°38'1616.4
2015-Jun-29 04:33N 36°24' E 014°19'1616.2
2015-Jun-29 03:33N 36°28' E 013°59'1616.0
2015-Jun-29 02:33N 36°34' E 013°41'1615.7
2015-Jun-29 01:33N 36°39' E 013°22'1615.5
2015-Jun-29 00:33N 36°44' E 013°04'1615.5
2015-Jun-28 23:33N 36°48' E 012°45'1615.8
2015-Jun-28 22:33N 36°53' E 012°27'1715.9
2015-Jun-28 21:29N 36°59' E 012°06'1515.6
2015-Jun-28 20:33N 37°05' E 011°50'1616.1
2015-Jun-28 19:33N 37°12' E 011°32'1616.0
2015-Jun-28 18:33N 37°19' E 011°14'1616.1
2015-Jun-28 17:33N 37°25' E 010°55'1716.6
2015-Jun-28 16:33N 37°29' E 010°35'1716.7
2015-Jun-28 15:33N 37°33' E 010°14'1716.5
2015-Jun-28 14:33N 37°32' E 009°53'3316.5
2015-Jun-28 12:31N 37°26' E 009°12'1616.3
2015-Jun-28 11:33N 37°23' E 008°52'2316.6
2015-Jun-28 10:11N 37°19' E 008°24'1115.7
2015-Jun-28 09:30N 37°19' E 008°11'23715.6
2015-Jun-27 18:19N 37°19' E 003°12'1215.6
2015-Jun-27 17:33N 37°18' E 002°57'1615.4
2015-Jun-27 16:33N 37°14' E 002°38'1515.3
2015-Jun-27 15:33N 37°11' E 002°20'1515.4
2015-Jun-27 14:33N 37°09' E 002°01'1615.6
2015-Jun-27 13:30N 37°05' E 001°41'1415.5
2015-Jun-27 12:34N 37°02' E 001°23'1515.0
2015-Jun-27 11:34N 36°58' E 001°05'1515.4
2015-Jun-27 10:33N 36°55' E 000°46'1615.7
2015-Jun-27 09:33N 36°51' E 000°27'1515.6
2015-Jun-27 08:33N 36°48' E 000°08'1715.0
2015-Jun-27 07:24N 36°45' W 000°13'1315.0
2015-Jun-27 06:33N 36°43' W 000°29'1515.3
2015-Jun-27 05:33N 36°38' W 000°47'1615.7
2015-Jun-27 04:33N 36°34' W 001°06'1815.6
2015-Jun-27 03:23N 36°29' W 001°28'1315.5
2015-Jun-27 02:33N 36°26' W 001°43'1515.4
2015-Jun-27 01:33N 36°23' W 002°02'1515.5
2015-Jun-27 00:33N 36°20' W 002°21'1515.4
2015-Jun-26 23:33N 36°17' W 002°40'13016.2
2015-Jun-26 15:33N 35°59' W 005°19'176 4.5
2015-Jun-25 00:31N 36°29' W 008°54'4815.4
2015-Jun-24 21:25N 37°03' W 009°37'3417.6
2015-Jun-24 19:27N 37°37' W 009°46'1717.4
2015-Jun-24 18:28N 37°53' W 009°52'1617.7
2015-Jun-24 17:33N 38°09' W 009°57'1717.5
2015-Jun-24 16:33N 38°26' W 010°02'1817.5
2015-Jun-24 15:32N 38°43' W 010°06'1717.4
2015-Jun-24 14:34N 39°01' W 010°06'1817.7
2015-Jun-24 13:33N 39°18' W 010°06'80717.9
2015-Jun-22 16:33N 50°34' E 000°16'2020.5
2015-Jun-22 15:34N 50°42' E 000°46'2119.8
2015-Jun-22 14:31N 50°54' E 001°12'1819.2
2015-Jun-22 13:34N 51°06' E 001°34'2019.9
2015-Jun-22 12:34N 51°25' E 001°44'2020.1
2015-Jun-22 11:34N 51°45' E 001°44'1312.7
2015-Jun-22 10:33N 51°56' E 001°33'9 8.6
2015-Jun-22 09:33N 51°57' E 001°19'0 0.2
2015-Jun-22 08:31N 51°57' E 001°19'0 0.0
2015-Jun-22 07:31N 51°57' E 001°19'0 0.0
2015-Jun-22 06:31N 51°57' E 001°19'0 0.0
2015-Jun-22 05:31N 51°57' E 001°19'0 0.0
2015-Jun-22 04:33N 51°57' E 001°19'0 0.0
2015-Jun-22 03:33N 51°57' E 001°19'0 0.0
2015-Jun-22 02:33N 51°57' E 001°19'0 0.0
2015-Jun-22 01:33N 51°57' E 001°19'0 0.0
2015-Jun-22 00:33N 51°57' E 001°19'0 0.0
2015-Jun-21 23:33N 51°57' E 001°19'0 0.0
2015-Jun-21 22:33N 51°57' E 001°19'0 0.0
2015-Jun-21 21:33N 51°57' E 001°19'0 0.0
2015-Jun-21 20:33N 51°57' E 001°19'0 0.0
2015-Jun-21 19:33N 51°57' E 001°19'0 0.0
2015-Jun-21 18:33N 51°57' E 001°19'0 0.0
2015-Jun-21 17:33N 51°57' E 001°19'0 0.0
2015-Jun-21 16:33N 51°57' E 001°19'0 0.0
2015-Jun-21 15:33N 51°57' E 001°19'0 0.0
2015-Jun-21 14:33N 51°57' E 001°19'0 0.0
2015-Jun-21 13:33N 51°57' E 001°19'0 0.0
2015-Jun-21 12:33N 51°57' E 001°19'0 0.0
2015-Jun-21 11:33N 51°57' E 001°19'0 0.0
2015-Jun-21 10:33N 51°57' E 001°19'0 0.0
2015-Jun-21 09:33N 51°57' E 001°19'7 7.1
2015-Jun-21 08:33N 51°57' E 001°30'6 6.4
2015-Jun-21 07:33N 51°52' E 001°37'2 2.4
2015-Jun-21 06:32N 51°54' E 001°40'0 0.0
2015-Jun-21 05:32N 51°54' E 001°40'0 0.0
2015-Jun-21 04:32N 51°54' E 001°40'0 0.0
2015-Jun-21 03:32N 51°53' E 001°40'0 0.2
2015-Jun-21 02:32N 51°53' E 001°40'0 0.2
2015-Jun-21 01:32N 51°53' E 001°40'0 0.0
2015-Jun-21 00:32N 51°53' E 001°40'0 0.0
2015-Jun-20 23:32N 51°53' E 001°40'0 0.0
2015-Jun-20 22:32N 51°53' E 001°40'0 0.3
2015-Jun-20 21:32N 51°53' E 001°40'0 0.2
2015-Jun-20 20:32N 51°54' E 001°40'0 0.0
2015-Jun-20 19:32N 51°54' E 001°40'0 0.0
2015-Jun-20 18:32N 51°54' E 001°40'0 0.0
2015-Jun-20 17:32N 51°54' E 001°40'0 0.0
2015-Jun-20 16:32N 51°54' E 001°40'0 0.0
2015-Jun-20 15:32N 51°54' E 001°40'4 4.1
2015-Jun-20 14:33N 51°52' E 001°46'1111.0
2015-Jun-20 13:33N 51°41' E 001°49'7 6.9
2015-Jun-20 12:33N 51°34' E 001°51'7 7.0
2015-Jun-20 11:33N 51°28' E 001°56'1111.0
2015-Jun-20 10:33N 51°22' E 002°11'1312.6
2015-Jun-20 09:33N 51°23' E 002°31'1212.5
2015-Jun-20 08:33N 51°25' E 002°50'1717.3
2015-Jun-20 07:33N 51°24' E 003°18'1413.8
2015-Jun-20 06:33N 51°26' E 003°40'1111.3
2015-Jun-20 05:33N 51°25' E 003°58'10 9.9
2015-Jun-20 04:33N 51°22' E 004°13'5 4.7
2015-Jun-20 03:33N 51°18' E 004°16'0 0.0
2015-Jun-20 02:31N 51°18' E 004°16'0 0.0
2015-Jun-20 01:31N 51°18' E 004°16'0 0.0
2015-Jun-20 00:31N 51°18' E 004°16'0 0.0
2015-Jun-19 23:31N 51°18' E 004°16'0 0.0
2015-Jun-19 22:31N 51°18' E 004°16'0 0.0
2015-Jun-19 21:28N 51°18' E 004°16'0 0.0
2015-Jun-19 20:25N 51°18' E 004°16'0 0.0
2015-Jun-19 19:31N 51°18' E 004°16'0 0.0
2015-Jun-19 18:13N 51°18' E 004°16'0 0.0
2015-Jun-19 17:28N 51°18' E 004°16'0 0.0
2015-Jun-19 16:31N 51°18' E 004°16'0 0.0
2015-Jun-19 15:31N 51°18' E 004°16'0 0.0
2015-Jun-19 14:28N 51°18' E 004°16'0 0.0
2015-Jun-19 13:28N 51°18' E 004°16'0 0.0
2015-Jun-19 12:25N 51°18' E 004°16'0 0.1
2015-Jun-19 11:33N 51°18' E 004°16'4 3.6
2015-Jun-19 10:33N 51°21' E 004°14'8 8.2
2015-Jun-19 09:33N 51°25' E 004°02'9 8.6
2015-Jun-19 08:33N 51°21' E 003°50'  
Track history (hours):
 
Tides and Currents Weather Stations Pressure Air Temp Water Temp Dewpoint Dewpoint Depression Visibility Wind Speed Wind Dir Waves Ship Positions

Gerd Maersk

Last reported at 2015-Jun-29 08:33 UTC. Time now 2015-Jul-03 12:26 UTC.
Position N 36°05' E 015°34'.

Length 367 m; draft 13.6 m.

Type: Ship (hazmat cat A). MMSI: 220415000.

Date/timePositionNaut miles runAvg speedWind from/ knotsBaromVisibWave heightAir tempDewpointWater temp
2015-Jun-29 08:33N 36°05' E 015°34'3715.6
2015-Jun-29 06:10N 36°17' E 014°50'1016.5
2015-Jun-29 05:33N 36°20' E 014°38'1616.4
2015-Jun-29 04:33N 36°24' E 014°19'1616.2
2015-Jun-29 03:33N 36°28' E 013°59'1616.0
2015-Jun-29 02:33N 36°34' E 013°41'1615.7
2015-Jun-29 01:33N 36°39' E 013°22'1615.5
2015-Jun-29 00:33N 36°44' E 013°04'1615.5
2015-Jun-28 23:33N 36°48' E 012°45'1615.8
2015-Jun-28 22:33N 36°53' E 012°27'1715.9
2015-Jun-28 21:29N 36°59' E 012°06'1515.6
2015-Jun-28 20:33N 37°05' E 011°50'1616.1
2015-Jun-28 19:33N 37°12' E 011°32'1616.0
2015-Jun-28 18:33N 37°19' E 011°14'1616.1
2015-Jun-28 17:33N 37°25' E 010°55'1716.6
2015-Jun-28 16:33N 37°29' E 010°35'1716.7
2015-Jun-28 15:33N 37°33' E 010°14'1716.5
2015-Jun-28 14:33N 37°32' E 009°53'3316.5
2015-Jun-28 12:31N 37°26' E 009°12'1616.3
2015-Jun-28 11:33N 37°23' E 008°52'2316.6
2015-Jun-28 10:11N 37°19' E 008°24'1115.7
2015-Jun-28 09:30N 37°19' E 008°11'23715.6
2015-Jun-27 18:19N 37°19' E 003°12'1215.6
2015-Jun-27 17:33N 37°18' E 002°57'1615.4
2015-Jun-27 16:33N 37°14' E 002°38'1515.3
2015-Jun-27 15:33N 37°11' E 002°20'1515.4
2015-Jun-27 14:33N 37°09' E 002°01'1615.6
2015-Jun-27 13:30N 37°05' E 001°41'1415.5
2015-Jun-27 12:34N 37°02' E 001°23'1515.0
2015-Jun-27 11:34N 36°58' E 001°05'1515.4
2015-Jun-27 10:33N 36°55' E 000°46'1615.7
2015-Jun-27 09:33N 36°51' E 000°27'1515.6
2015-Jun-27 08:33N 36°48' E 000°08'1715.0
2015-Jun-27 07:24N 36°45' W 000°13'1315.0
2015-Jun-27 06:33N 36°43' W 000°29'1515.3
2015-Jun-27 05:33N 36°38' W 000°47'1615.7
2015-Jun-27 04:33N 36°34' W 001°06'1815.6
2015-Jun-27 03:23N 36°29' W 001°28'1315.5
2015-Jun-27 02:33N 36°26' W 001°43'1515.4
2015-Jun-27 01:33N 36°23' W 002°02'1515.5
2015-Jun-27 00:33N 36°20' W 002°21'1515.4
2015-Jun-26 23:33N 36°17' W 002°40'13016.2
2015-Jun-26 15:33N 35°59' W 005°19'176 4.5
2015-Jun-25 00:31N 36°29' W 008°54'4815.4
2015-Jun-24 21:25N 37°03' W 009°37'3417.6
2015-Jun-24 19:27N 37°37' W 009°46'1717.4
2015-Jun-24 18:28N 37°53' W 009°52'1617.7
2015-Jun-24 17:33N 38°09' W 009°57'1717.5
2015-Jun-24 16:33N 38°26' W 010°02'1817.5
2015-Jun-24 15:32N 38°43' W 010°06'1717.4
2015-Jun-24 14:34N 39°01' W 010°06'1817.7
2015-Jun-24 13:33N 39°18' W 010°06'80717.9
2015-Jun-22 16:33N 50°34' E 000°16'2020.5
2015-Jun-22 15:34N 50°42' E 000°46'2119.8
2015-Jun-22 14:31N 50°54' E 001°12'1819.2
2015-Jun-22 13:34N 51°06' E 001°34'2019.9
2015-Jun-22 12:34N 51°25' E 001°44'2020.1
2015-Jun-22 11:34N 51°45' E 001°44'1312.7
2015-Jun-22 10:33N 51°56' E 001°33'9 8.6
2015-Jun-22 09:33N 51°57' E 001°19'0 0.2
2015-Jun-22 08:31N 51°57' E 001°19'0 0.0
2015-Jun-22 07:31N 51°57' E 001°19'0 0.0
2015-Jun-22 06:31N 51°57' E 001°19'0 0.0
2015-Jun-22 05:31N 51°57' E 001°19'0 0.0
2015-Jun-22 04:33N 51°57' E 001°19'0 0.0
2015-Jun-22 03:33N 51°57' E 001°19'0 0.0
2015-Jun-22 02:33N 51°57' E 001°19'0 0.0
2015-Jun-22 01:33N 51°57' E 001°19'0 0.0
2015-Jun-22 00:33N 51°57' E 001°19'0 0.0
2015-Jun-21 23:33N 51°57' E 001°19'0 0.0
2015-Jun-21 22:33N 51°57' E 001°19'0 0.0
2015-Jun-21 21:33N 51°57' E 001°19'0 0.0
2015-Jun-21 20:33N 51°57' E 001°19'0 0.0
2015-Jun-21 19:33N 51°57' E 001°19'0 0.0
2015-Jun-21 18:33N 51°57' E 001°19'0 0.0
2015-Jun-21 17:33N 51°57' E 001°19'0 0.0
2015-Jun-21 16:33N 51°57' E 001°19'0 0.0
2015-Jun-21 15:33N 51°57' E 001°19'0 0.0
2015-Jun-21 14:33N 51°57' E 001°19'0 0.0
2015-Jun-21 13:33N 51°57' E 001°19'0 0.0
2015-Jun-21 12:33N 51°57' E 001°19'0 0.0
2015-Jun-21 11:33N 51°57' E 001°19'0 0.0
2015-Jun-21 10:33N 51°57' E 001°19'0 0.0
2015-Jun-21 09:33N 51°57' E 001°19'7 7.1
2015-Jun-21 08:33N 51°57' E 001°30'6 6.4
2015-Jun-21 07:33N 51°52' E 001°37'2 2.4
2015-Jun-21 06:32N 51°54' E 001°40'0 0.0
2015-Jun-21 05:32N 51°54' E 001°40'0 0.0
2015-Jun-21 04:32N 51°54' E 001°40'0 0.0
2015-Jun-21 03:32N 51°53' E 001°40'0 0.2
2015-Jun-21 02:32N 51°53' E 001°40'0 0.2
2015-Jun-21 01:32N 51°53' E 001°40'0 0.0
2015-Jun-21 00:32N 51°53' E 001°40'0 0.0
2015-Jun-20 23:32N 51°53' E 001°40'0 0.0
2015-Jun-20 22:32N 51°53' E 001°40'0 0.3
2015-Jun-20 21:32N 51°53' E 001°40'0 0.2
2015-Jun-20 20:32N 51°54' E 001°40'0 0.0
2015-Jun-20 19:32N 51°54' E 001°40'0 0.0
2015-Jun-20 18:32N 51°54' E 001°40'0 0.0
2015-Jun-20 17:32N 51°54' E 001°40'0 0.0
2015-Jun-20 16:32N 51°54' E 001°40'0 0.0
2015-Jun-20 15:32N 51°54' E 001°40'4 4.1
2015-Jun-20 14:33N 51°52' E 001°46'1111.0
2015-Jun-20 13:33N 51°41' E 001°49'7 6.9
2015-Jun-20 12:33N 51°34' E 001°51'7 7.0
2015-Jun-20 11:33N 51°28' E 001°56'1111.0
2015-Jun-20 10:33N 51°22' E 002°11'1312.6
2015-Jun-20 09:33N 51°23' E 002°31'1212.5
2015-Jun-20 08:33N 51°25' E 002°50'1717.3
2015-Jun-20 07:33N 51°24' E 003°18'1413.8
2015-Jun-20 06:33N 51°26' E 003°40'1111.3
2015-Jun-20 05:33N 51°25' E 003°58'10 9.9
2015-Jun-20 04:33N 51°22' E 004°13'5 4.7
2015-Jun-20 03:33N 51°18' E 004°16'0 0.0
2015-Jun-20 02:31N 51°18' E 004°16'0 0.0
2015-Jun-20 01:31N 51°18' E 004°16'0 0.0
2015-Jun-20 00:31N 51°18' E 004°16'0 0.0
2015-Jun-19 23:31N 51°18' E 004°16'0 0.0
2015-Jun-19 22:31N 51°18' E 004°16'0 0.0
2015-Jun-19 21:28N 51°18' E 004°16'0 0.0
2015-Jun-19 20:25N 51°18' E 004°16'0 0.0
2015-Jun-19 19:31N 51°18' E 004°16'0 0.0
2015-Jun-19 18:13N 51°18' E 004°16'0 0.0
2015-Jun-19 17:28N 51°18' E 004°16'0 0.0
2015-Jun-19 16:31N 51°18' E 004°16'0 0.0
2015-Jun-19 15:31N 51°18' E 004°16'0 0.0
2015-Jun-19 14:28N 51°18' E 004°16'0 0.0
2015-Jun-19 13:28N 51°18' E 004°16'0 0.0
2015-Jun-19 12:25N 51°18' E 004°16'0 0.1
2015-Jun-19 11:33N 51°18' E 004°16'4 3.6
2015-Jun-19 10:33N 51°21' E 004°14'8 8.2
2015-Jun-19 09:33N 51°25' E 004°02'9 8.6
2015-Jun-19 08:33N 51°21' E 003°50'  

Dump ship's entire track history